sensor_id;sensor_type;location;lat;lon;timestamp;P1;durP1;ratioP1;P2;durP2;ratioP2
5507;SDS011;2776;51.046;6.772;2023-02-15T00:00:28;33.53;;;20.70;;
5507;SDS011;2776;51.046;6.772;2023-02-15T00:02:54;31.67;;;20.63;;
5507;SDS011;2776;51.046;6.772;2023-02-15T00:05:22;32.67;;;20.93;;
5507;SDS011;2776;51.046;6.772;2023-02-15T00:07:49;34.20;;;20.83;;
5507;SDS011;2776;51.046;6.772;2023-02-15T00:10:16;35.60;;;21.40;;
5507;SDS011;2776;51.046;6.772;2023-02-15T00:12:43;34.43;;;21.57;;
5507;SDS011;2776;51.046;6.772;2023-02-15T00:15:09;36.73;;;21.70;;
5507;SDS011;2776;51.046;6.772;2023-02-15T00:17:37;36.37;;;22.87;;
5507;SDS011;2776;51.046;6.772;2023-02-15T00:20:05;35.83;;;21.70;;
5507;SDS011;2776;51.046;6.772;2023-02-15T00:22:34;35.33;;;22.07;;
5507;SDS011;2776;51.046;6.772;2023-02-15T00:25:00;35.90;;;21.93;;
5507;SDS011;2776;51.046;6.772;2023-02-15T00:27:27;36.83;;;21.23;;
5507;SDS011;2776;51.046;6.772;2023-02-15T00:29:54;30.97;;;21.23;;
5507;SDS011;2776;51.046;6.772;2023-02-15T00:32:21;36.87;;;22.47;;
5507;SDS011;2776;51.046;6.772;2023-02-15T00:34:47;37.43;;;21.20;;
5507;SDS011;2776;51.046;6.772;2023-02-15T00:37:14;40.50;;;23.53;;
5507;SDS011;2776;51.046;6.772;2023-02-15T00:39:42;35.80;;;21.77;;
5507;SDS011;2776;51.046;6.772;2023-02-15T00:42:09;36.27;;;21.90;;
5507;SDS011;2776;51.046;6.772;2023-02-15T00:44:36;36.60;;;22.70;;
5507;SDS011;2776;51.046;6.772;2023-02-15T00:47:02;35.17;;;21.77;;
5507;SDS011;2776;51.046;6.772;2023-02-15T00:49:29;36.90;;;22.00;;
5507;SDS011;2776;51.046;6.772;2023-02-15T00:51:56;40.63;;;22.80;;
5507;SDS011;2776;51.046;6.772;2023-02-15T00:54:22;38.23;;;23.33;;
5507;SDS011;2776;51.046;6.772;2023-02-15T00:56:51;40.13;;;23.13;;
5507;SDS011;2776;51.046;6.772;2023-02-15T00:59:17;40.53;;;24.40;;
5507;SDS011;2776;51.046;6.772;2023-02-15T01:01:44;40.33;;;23.60;;
5507;SDS011;2776;51.046;6.772;2023-02-15T01:04:11;36.50;;;22.23;;
5507;SDS011;2776;51.046;6.772;2023-02-15T01:06:37;38.60;;;22.93;;
5507;SDS011;2776;51.046;6.772;2023-02-15T01:09:04;37.57;;;23.10;;
5507;SDS011;2776;51.046;6.772;2023-02-15T01:11:31;37.50;;;23.37;;
5507;SDS011;2776;51.046;6.772;2023-02-15T01:13:59;39.70;;;22.33;;
5507;SDS011;2776;51.046;6.772;2023-02-15T01:16:28;38.10;;;21.97;;
5507;SDS011;2776;51.046;6.772;2023-02-15T01:18:55;35.90;;;22.00;;
5507;SDS011;2776;51.046;6.772;2023-02-15T01:21:22;41.53;;;24.67;;
5507;SDS011;2776;51.046;6.772;2023-02-15T01:23:51;37.67;;;23.17;;
5507;SDS011;2776;51.046;6.772;2023-02-15T01:26:18;40.03;;;23.90;;
5507;SDS011;2776;51.046;6.772;2023-02-15T01:28:45;41.33;;;24.93;;
5507;SDS011;2776;51.046;6.772;2023-02-15T01:31:14;43.97;;;24.33;;
5507;SDS011;2776;51.046;6.772;2023-02-15T01:33:42;41.27;;;24.30;;
5507;SDS011;2776;51.046;6.772;2023-02-15T01:36:09;39.03;;;23.50;;
5507;SDS011;2776;51.046;6.772;2023-02-15T01:38:35;41.77;;;24.00;;
5507;SDS011;2776;51.046;6.772;2023-02-15T01:41:02;41.20;;;23.13;;
5507;SDS011;2776;51.046;6.772;2023-02-15T01:43:53;39.47;;;22.73;;
5507;SDS011;2776;51.046;6.772;2023-02-15T01:46:24;37.27;;;23.37;;
5507;SDS011;2776;51.046;6.772;2023-02-15T01:48:57;38.13;;;22.00;;
5507;SDS011;2776;51.046;6.772;2023-02-15T01:51:29;35.70;;;21.63;;
5507;SDS011;2776;51.046;6.772;2023-02-15T01:54:00;38.73;;;23.87;;
5507;SDS011;2776;51.046;6.772;2023-02-15T01:56:32;39.67;;;22.67;;
5507;SDS011;2776;51.046;6.772;2023-02-15T01:59:02;41.53;;;23.70;;
5507;SDS011;2776;51.046;6.772;2023-02-15T02:01:34;39.00;;;23.13;;
5507;SDS011;2776;51.046;6.772;2023-02-15T02:04:02;39.70;;;23.43;;
5507;SDS011;2776;51.046;6.772;2023-02-15T02:06:35;39.33;;;22.47;;
5507;SDS011;2776;51.046;6.772;2023-02-15T02:09:03;36.77;;;21.83;;
5507;SDS011;2776;51.046;6.772;2023-02-15T02:11:30;33.70;;;21.43;;
5507;SDS011;2776;51.046;6.772;2023-02-15T02:13:57;38.10;;;22.87;;
5507;SDS011;2776;51.046;6.772;2023-02-15T02:16:25;38.40;;;23.30;;
5507;SDS011;2776;51.046;6.772;2023-02-15T02:19:04;39.60;;;23.03;;
5507;SDS011;2776;51.046;6.772;2023-02-15T02:25:06;38.37;;;23.17;;
5507;SDS011;2776;51.046;6.772;2023-02-15T02:27:49;38.03;;;22.83;;
5507;SDS011;2776;51.046;6.772;2023-02-15T02:30:31;38.83;;;23.10;;
5507;SDS011;2776;51.046;6.772;2023-02-15T02:33:23;38.07;;;22.33;;
5507;SDS011;2776;51.046;6.772;2023-02-15T02:36:13;33.53;;;22.07;;
5507;SDS011;2776;51.046;6.772;2023-02-15T02:38:48;39.90;;;21.90;;
5507;SDS011;2776;51.046;6.772;2023-02-15T02:41:26;39.93;;;22.47;;
5507;SDS011;2776;51.046;6.772;2023-02-15T02:43:59;39.40;;;22.33;;
5507;SDS011;2776;51.046;6.772;2023-02-15T02:46:32;38.57;;;23.27;;
5507;SDS011;2776;51.046;6.772;2023-02-15T02:49:04;40.90;;;22.60;;
5507;SDS011;2776;51.046;6.772;2023-02-15T02:51:30;37.50;;;21.83;;
5507;SDS011;2776;51.046;6.772;2023-02-15T02:53:58;42.30;;;24.57;;
5507;SDS011;2776;51.046;6.772;2023-02-15T02:56:31;42.03;;;23.50;;
5507;SDS011;2776;51.046;6.772;2023-02-15T02:59:04;41.30;;;23.20;;
5507;SDS011;2776;51.046;6.772;2023-02-15T03:01:35;38.10;;;22.77;;
5507;SDS011;2776;51.046;6.772;2023-02-15T03:04:08;37.27;;;21.27;;
5507;SDS011;2776;51.046;6.772;2023-02-15T03:06:38;38.57;;;21.93;;
5507;SDS011;2776;51.046;6.772;2023-02-15T03:09:08;38.83;;;21.77;;
5507;SDS011;2776;51.046;6.772;2023-02-15T03:11:41;38.50;;;22.07;;
5507;SDS011;2776;51.046;6.772;2023-02-15T03:14:09;41.07;;;21.60;;
5507;SDS011;2776;51.046;6.772;2023-02-15T03:16:36;39.17;;;22.20;;
5507;SDS011;2776;51.046;6.772;2023-02-15T03:19:07;35.97;;;21.80;;
5507;SDS011;2776;51.046;6.772;2023-02-15T03:21:39;40.73;;;22.97;;
5507;SDS011;2776;51.046;6.772;2023-02-15T03:24:14;40.43;;;23.30;;
5507;SDS011;2776;51.046;6.772;2023-02-15T03:26:46;43.00;;;23.07;;
5507;SDS011;2776;51.046;6.772;2023-02-15T03:29:16;39.93;;;22.13;;
5507;SDS011;2776;51.046;6.772;2023-02-15T03:31:46;40.23;;;21.50;;
5507;SDS011;2776;51.046;6.772;2023-02-15T03:34:17;41.10;;;22.57;;
5507;SDS011;2776;51.046;6.772;2023-02-15T03:36:44;39.77;;;22.53;;
5507;SDS011;2776;51.046;6.772;2023-02-15T03:39:17;36.83;;;21.40;;
5507;SDS011;2776;51.046;6.772;2023-02-15T03:41:50;38.57;;;20.93;;
5507;SDS011;2776;51.046;6.772;2023-02-15T03:44:25;38.87;;;21.57;;
5507;SDS011;2776;51.046;6.772;2023-02-15T03:46:56;38.43;;;21.33;;
5507;SDS011;2776;51.046;6.772;2023-02-15T03:49:30;42.13;;;22.20;;
5507;SDS011;2776;51.046;6.772;2023-02-15T03:52:04;38.00;;;21.87;;
5507;SDS011;2776;51.046;6.772;2023-02-15T03:54:33;38.97;;;21.63;;
5507;SDS011;2776;51.046;6.772;2023-02-15T03:57:16;41.57;;;22.40;;
5507;SDS011;2776;51.046;6.772;2023-02-15T04:00:03;37.93;;;21.53;;
5507;SDS011;2776;51.046;6.772;2023-02-15T04:02:58;37.20;;;20.33;;
5507;SDS011;2776;51.046;6.772;2023-02-15T04:05:36;37.47;;;21.47;;
5507;SDS011;2776;51.046;6.772;2023-02-15T04:08:03;40.13;;;21.97;;
5507;SDS011;2776;51.046;6.772;2023-02-15T04:10:30;41.00;;;21.57;;
5507;SDS011;2776;51.046;6.772;2023-02-15T04:13:15;39.10;;;20.97;;
5507;SDS011;2776;51.046;6.772;2023-02-15T04:15:41;39.50;;;21.73;;
5507;SDS011;2776;51.046;6.772;2023-02-15T04:18:26;38.37;;;21.70;;
5507;SDS011;2776;51.046;6.772;2023-02-15T04:21:11;37.30;;;21.20;;
5507;SDS011;2776;51.046;6.772;2023-02-15T04:23:55;37.43;;;20.70;;
5507;SDS011;2776;51.046;6.772;2023-02-15T04:26:39;35.30;;;20.43;;
5507;SDS011;2776;51.046;6.772;2023-02-15T04:29:06;41.57;;;22.23;;
5507;SDS011;2776;51.046;6.772;2023-02-15T04:31:33;36.97;;;20.40;;
5507;SDS011;2776;51.046;6.772;2023-02-15T04:33:59;39.00;;;20.90;;
5507;SDS011;2776;51.046;6.772;2023-02-15T04:36:27;38.80;;;22.40;;
5507;SDS011;2776;51.046;6.772;2023-02-15T04:38:54;42.87;;;22.23;;
5507;SDS011;2776;51.046;6.772;2023-02-15T04:41:21;40.20;;;22.70;;
5507;SDS011;2776;51.046;6.772;2023-02-15T04:43:48;38.07;;;21.40;;
5507;SDS011;2776;51.046;6.772;2023-02-15T04:46:14;35.13;;;21.80;;
5507;SDS011;2776;51.046;6.772;2023-02-15T04:48:41;40.80;;;21.97;;
5507;SDS011;2776;51.046;6.772;2023-02-15T04:51:08;42.87;;;22.30;;
5507;SDS011;2776;51.046;6.772;2023-02-15T04:53:37;38.53;;;21.00;;
5507;SDS011;2776;51.046;6.772;2023-02-15T04:56:04;44.23;;;21.93;;
5507;SDS011;2776;51.046;6.772;2023-02-15T04:58:31;38.50;;;20.63;;
5507;SDS011;2776;51.046;6.772;2023-02-15T05:00:57;37.67;;;21.20;;
5507;SDS011;2776;51.046;6.772;2023-02-15T05:03:24;37.10;;;20.67;;
5507;SDS011;2776;51.046;6.772;2023-02-15T05:05:51;43.63;;;21.83;;
5507;SDS011;2776;51.046;6.772;2023-02-15T05:08:18;41.17;;;20.33;;
5507;SDS011;2776;51.046;6.772;2023-02-15T05:10:47;39.90;;;21.03;;
5507;SDS011;2776;51.046;6.772;2023-02-15T05:13:14;42.03;;;21.23;;
5507;SDS011;2776;51.046;6.772;2023-02-15T05:15:41;37.33;;;20.97;;
5507;SDS011;2776;51.046;6.772;2023-02-15T05:18:07;41.57;;;21.63;;
5507;SDS011;2776;51.046;6.772;2023-02-15T05:20:34;41.73;;;21.27;;
5507;SDS011;2776;51.046;6.772;2023-02-15T05:23:01;41.93;;;22.03;;
5507;SDS011;2776;51.046;6.772;2023-02-15T05:25:28;39.27;;;21.30;;
5507;SDS011;2776;51.046;6.772;2023-02-15T05:28:13;39.70;;;20.17;;
5507;SDS011;2776;51.046;6.772;2023-02-15T05:30:46;35.90;;;19.27;;
5507;SDS011;2776;51.046;6.772;2023-02-15T05:33:12;36.97;;;21.13;;
5507;SDS011;2776;51.046;6.772;2023-02-15T05:35:39;42.27;;;21.27;;
5507;SDS011;2776;51.046;6.772;2023-02-15T05:38:06;38.73;;;20.80;;
5507;SDS011;2776;51.046;6.772;2023-02-15T05:40:33;38.57;;;21.63;;
5507;SDS011;2776;51.046;6.772;2023-02-15T05:43:00;38.63;;;21.00;;
5507;SDS011;2776;51.046;6.772;2023-02-15T05:45:28;38.83;;;20.87;;
5507;SDS011;2776;51.046;6.772;2023-02-15T05:47:55;39.27;;;21.47;;
5507;SDS011;2776;51.046;6.772;2023-02-15T05:50:23;38.33;;;20.57;;
5507;SDS011;2776;51.046;6.772;2023-02-15T05:52:49;39.43;;;22.03;;
5507;SDS011;2776;51.046;6.772;2023-02-15T05:55:16;36.73;;;20.47;;
5507;SDS011;2776;51.046;6.772;2023-02-15T05:57:43;37.70;;;20.53;;
5507;SDS011;2776;51.046;6.772;2023-02-15T06:00:10;40.30;;;21.30;;
5507;SDS011;2776;51.046;6.772;2023-02-15T06:02:40;41.47;;;21.27;;
5507;SDS011;2776;51.046;6.772;2023-02-15T06:05:07;36.27;;;20.83;;
5507;SDS011;2776;51.046;6.772;2023-02-15T06:07:34;39.87;;;20.83;;
5507;SDS011;2776;51.046;6.772;2023-02-15T06:10:01;39.00;;;20.57;;
5507;SDS011;2776;51.046;6.772;2023-02-15T06:12:28;38.30;;;20.40;;
5507;SDS011;2776;51.046;6.772;2023-02-15T06:14:54;37.23;;;20.53;;
5507;SDS011;2776;51.046;6.772;2023-02-15T06:17:21;38.53;;;21.43;;
5507;SDS011;2776;51.046;6.772;2023-02-15T06:19:49;34.20;;;20.27;;
5507;SDS011;2776;51.046;6.772;2023-02-15T06:22:16;40.27;;;20.43;;
5507;SDS011;2776;51.046;6.772;2023-02-15T06:24:43;34.20;;;19.10;;
5507;SDS011;2776;51.046;6.772;2023-02-15T06:27:09;38.57;;;21.37;;
5507;SDS011;2776;51.046;6.772;2023-02-15T06:29:36;41.00;;;21.03;;
5507;SDS011;2776;51.046;6.772;2023-02-15T06:32:03;39.07;;;20.43;;
5507;SDS011;2776;51.046;6.772;2023-02-15T06:34:30;39.87;;;20.23;;
5507;SDS011;2776;51.046;6.772;2023-02-15T06:36:59;42.43;;;20.37;;
5507;SDS011;2776;51.046;6.772;2023-02-15T06:39:26;36.33;;;19.90;;
5507;SDS011;2776;51.046;6.772;2023-02-15T06:41:52;34.43;;;18.00;;
5507;SDS011;2776;51.046;6.772;2023-02-15T06:44:19;35.63;;;19.63;;
5507;SDS011;2776;51.046;6.772;2023-02-15T06:46:46;36.80;;;19.77;;
5507;SDS011;2776;51.046;6.772;2023-02-15T06:49:13;37.20;;;19.33;;
5507;SDS011;2776;51.046;6.772;2023-02-15T06:51:39;36.37;;;20.17;;
5507;SDS011;2776;51.046;6.772;2023-02-15T06:54:07;36.60;;;20.53;;
5507;SDS011;2776;51.046;6.772;2023-02-15T06:56:34;36.23;;;19.50;;
5507;SDS011;2776;51.046;6.772;2023-02-15T06:59:01;37.40;;;19.17;;
5507;SDS011;2776;51.046;6.772;2023-02-15T07:01:28;35.10;;;19.17;;
5507;SDS011;2776;51.046;6.772;2023-02-15T07:03:55;35.43;;;20.07;;
5507;SDS011;2776;51.046;6.772;2023-02-15T07:06:22;31.47;;;19.37;;
5507;SDS011;2776;51.046;6.772;2023-02-15T07:08:48;38.47;;;19.53;;
5507;SDS011;2776;51.046;6.772;2023-02-15T07:11:16;36.73;;;19.97;;
5507;SDS011;2776;51.046;6.772;2023-02-15T07:14:01;34.87;;;19.20;;
5507;SDS011;2776;51.046;6.772;2023-02-15T07:16:27;36.80;;;19.67;;
5507;SDS011;2776;51.046;6.772;2023-02-15T07:18:54;35.00;;;19.23;;
5507;SDS011;2776;51.046;6.772;2023-02-15T07:21:21;31.63;;;18.67;;
5507;SDS011;2776;51.046;6.772;2023-02-15T07:23:49;32.83;;;19.40;;
5507;SDS011;2776;51.046;6.772;2023-02-15T07:26:17;35.37;;;18.77;;
5507;SDS011;2776;51.046;6.772;2023-02-15T07:28:43;33.10;;;18.87;;
5507;SDS011;2776;51.046;6.772;2023-02-15T07:31:10;35.63;;;19.73;;
5507;SDS011;2776;51.046;6.772;2023-02-15T07:33:37;31.43;;;17.73;;
5507;SDS011;2776;51.046;6.772;2023-02-15T07:36:04;32.60;;;18.73;;
5507;SDS011;2776;51.046;6.772;2023-02-15T07:38:32;29.93;;;18.23;;
5507;SDS011;2776;51.046;6.772;2023-02-15T07:41:00;27.23;;;17.77;;
5507;SDS011;2776;51.046;6.772;2023-02-15T07:43:29;27.30;;;16.97;;
5507;SDS011;2776;51.046;6.772;2023-02-15T07:45:58;25.23;;;16.80;;
5507;SDS011;2776;51.046;6.772;2023-02-15T07:48:25;21.37;;;14.90;;
5507;SDS011;2776;51.046;6.772;2023-02-15T07:50:52;22.03;;;14.70;;
5507;SDS011;2776;51.046;6.772;2023-02-15T07:53:19;21.67;;;14.50;;
5507;SDS011;2776;51.046;6.772;2023-02-15T07:55:46;20.40;;;13.83;;
5507;SDS011;2776;51.046;6.772;2023-02-15T07:58:13;20.10;;;13.90;;
5507;SDS011;2776;51.046;6.772;2023-02-15T08:00:41;18.73;;;13.10;;
5507;SDS011;2776;51.046;6.772;2023-02-15T08:03:23;16.30;;;12.23;;
5507;SDS011;2776;51.046;6.772;2023-02-15T08:05:54;19.60;;;12.77;;
5507;SDS011;2776;51.046;6.772;2023-02-15T08:08:22;17.87;;;12.13;;
5507;SDS011;2776;51.046;6.772;2023-02-15T08:10:58;16.83;;;12.90;;
5507;SDS011;2776;51.046;6.772;2023-02-15T08:13:44;19.83;;;13.53;;
5507;SDS011;2776;51.046;6.772;2023-02-15T08:16:24;18.47;;;13.27;;
5507;SDS011;2776;51.046;6.772;2023-02-15T08:18:52;16.57;;;12.13;;
5507;SDS011;2776;51.046;6.772;2023-02-15T08:21:19;17.97;;;12.20;;
5507;SDS011;2776;51.046;6.772;2023-02-15T08:23:46;17.63;;;11.97;;
5507;SDS011;2776;51.046;6.772;2023-02-15T08:26:13;16.57;;;12.13;;
5507;SDS011;2776;51.046;6.772;2023-02-15T08:28:41;18.23;;;13.40;;
5507;SDS011;2776;51.046;6.772;2023-02-15T08:31:09;17.50;;;12.03;;
5507;SDS011;2776;51.046;6.772;2023-02-15T08:33:39;19.00;;;12.70;;
5507;SDS011;2776;51.046;6.772;2023-02-15T08:36:08;19.03;;;13.03;;
5507;SDS011;2776;51.046;6.772;2023-02-15T08:38:36;17.97;;;13.50;;
5507;SDS011;2776;51.046;6.772;2023-02-15T08:41:10;16.73;;;11.83;;
5507;SDS011;2776;51.046;6.772;2023-02-15T08:43:38;17.07;;;12.50;;
5507;SDS011;2776;51.046;6.772;2023-02-15T08:46:06;16.00;;;11.87;;
5507;SDS011;2776;51.046;6.772;2023-02-15T08:48:33;16.40;;;12.20;;
5507;SDS011;2776;51.046;6.772;2023-02-15T08:51:05;18.00;;;12.63;;
5507;SDS011;2776;51.046;6.772;2023-02-15T08:53:33;21.00;;;12.97;;
5507;SDS011;2776;51.046;6.772;2023-02-15T08:56:00;15.60;;;11.13;;
5507;SDS011;2776;51.046;6.772;2023-02-15T08:58:27;15.23;;;11.33;;
5507;SDS011;2776;51.046;6.772;2023-02-15T09:00:55;17.40;;;12.63;;
5507;SDS011;2776;51.046;6.772;2023-02-15T09:03:22;15.90;;;11.73;;
5507;SDS011;2776;51.046;6.772;2023-02-15T09:05:49;18.17;;;12.47;;
5507;SDS011;2776;51.046;6.772;2023-02-15T09:08:17;16.70;;;13.03;;
5507;SDS011;2776;51.046;6.772;2023-02-15T09:10:43;15.80;;;11.90;;
5507;SDS011;2776;51.046;6.772;2023-02-15T09:13:10;16.27;;;12.10;;
5507;SDS011;2776;51.046;6.772;2023-02-15T09:15:38;15.27;;;11.63;;
5507;SDS011;2776;51.046;6.772;2023-02-15T09:18:05;17.30;;;11.97;;
5507;SDS011;2776;51.046;6.772;2023-02-15T09:20:34;14.97;;;11.70;;
5507;SDS011;2776;51.046;6.772;2023-02-15T09:23:02;16.73;;;12.27;;
5507;SDS011;2776;51.046;6.772;2023-02-15T09:25:30;14.60;;;11.70;;
5507;SDS011;2776;51.046;6.772;2023-02-15T09:27:56;16.33;;;12.13;;
5507;SDS011;2776;51.046;6.772;2023-02-15T09:30:23;14.27;;;11.73;;
5507;SDS011;2776;51.046;6.772;2023-02-15T09:32:50;15.00;;;12.13;;
5507;SDS011;2776;51.046;6.772;2023-02-15T09:35:16;15.77;;;12.20;;
5507;SDS011;2776;51.046;6.772;2023-02-15T09:37:43;16.37;;;11.93;;
5507;SDS011;2776;51.046;6.772;2023-02-15T09:40:11;16.90;;;11.90;;
5507;SDS011;2776;51.046;6.772;2023-02-15T09:42:45;14.87;;;11.00;;
5507;SDS011;2776;51.046;6.772;2023-02-15T09:45:31;16.37;;;12.00;;
5507;SDS011;2776;51.046;6.772;2023-02-15T09:48:22;15.77;;;11.40;;
5507;SDS011;2776;51.046;6.772;2023-02-15T09:51:05;15.70;;;11.07;;
5507;SDS011;2776;51.046;6.772;2023-02-15T09:53:47;16.47;;;12.23;;
5507;SDS011;2776;51.046;6.772;2023-02-15T09:56:27;16.67;;;11.33;;
5507;SDS011;2776;51.046;6.772;2023-02-15T09:59:04;15.47;;;11.47;;
5507;SDS011;2776;51.046;6.772;2023-02-15T10:01:41;15.63;;;12.17;;
5507;SDS011;2776;51.046;6.772;2023-02-15T10:04:32;13.93;;;10.83;;
5507;SDS011;2776;51.046;6.772;2023-02-15T10:07:18;15.07;;;10.90;;
5507;SDS011;2776;51.046;6.772;2023-02-15T10:09:58;16.20;;;11.80;;
5507;SDS011;2776;51.046;6.772;2023-02-15T10:12:40;14.87;;;10.90;;
5507;SDS011;2776;51.046;6.772;2023-02-15T10:15:23;16.27;;;11.83;;
5507;SDS011;2776;51.046;6.772;2023-02-15T10:18:01;16.87;;;12.30;;
5507;SDS011;2776;51.046;6.772;2023-02-15T10:20:40;14.57;;;11.07;;
5507;SDS011;2776;51.046;6.772;2023-02-15T10:23:21;18.17;;;12.10;;
5507;SDS011;2776;51.046;6.772;2023-02-15T10:25:57;16.97;;;11.50;;
5507;SDS011;2776;51.046;6.772;2023-02-15T10:28:31;14.07;;;10.60;;
5507;SDS011;2776;51.046;6.772;2023-02-15T10:31:11;15.33;;;11.93;;
5507;SDS011;2776;51.046;6.772;2023-02-15T10:33:48;16.30;;;11.37;;
5507;SDS011;2776;51.046;6.772;2023-02-15T10:36:26;15.67;;;11.43;;
5507;SDS011;2776;51.046;6.772;2023-02-15T10:39:02;17.03;;;11.10;;
5507;SDS011;2776;51.046;6.772;2023-02-15T10:41:35;16.23;;;11.17;;
5507;SDS011;2776;51.046;6.772;2023-02-15T10:47:07;17.07;;;10.77;;
5507;SDS011;2776;51.046;6.772;2023-02-15T10:49:55;15.27;;;11.47;;
5507;SDS011;2776;51.046;6.772;2023-02-15T10:52:34;13.07;;;11.03;;
5507;SDS011;2776;51.046;6.772;2023-02-15T10:55:11;16.40;;;11.63;;
5507;SDS011;2776;51.046;6.772;2023-02-15T10:57:46;14.13;;;10.93;;
5507;SDS011;2776;51.046;6.772;2023-02-15T11:00:22;14.77;;;11.30;;
5507;SDS011;2776;51.046;6.772;2023-02-15T11:03:04;15.73;;;11.13;;
5507;SDS011;2776;51.046;6.772;2023-02-15T11:05:41;14.20;;;10.87;;
5507;SDS011;2776;51.046;6.772;2023-02-15T11:08:15;14.47;;;11.10;;
5507;SDS011;2776;51.046;6.772;2023-02-15T11:10:43;16.17;;;10.83;;
5507;SDS011;2776;51.046;6.772;2023-02-15T11:13:13;19.17;;;10.80;;
5507;SDS011;2776;51.046;6.772;2023-02-15T11:15:43;15.37;;;11.57;;
5507;SDS011;2776;51.046;6.772;2023-02-15T11:18:15;17.03;;;10.77;;
5507;SDS011;2776;51.046;6.772;2023-02-15T11:20:50;18.30;;;11.47;;
5507;SDS011;2776;51.046;6.772;2023-02-15T11:23:21;15.43;;;10.63;;
5507;SDS011;2776;51.046;6.772;2023-02-15T11:25:52;14.83;;;11.43;;
5507;SDS011;2776;51.046;6.772;2023-02-15T11:28:23;13.60;;;10.27;;
5507;SDS011;2776;51.046;6.772;2023-02-15T11:30:54;14.37;;;11.00;;
5507;SDS011;2776;51.046;6.772;2023-02-15T11:33:25;14.97;;;10.80;;
5507;SDS011;2776;51.046;6.772;2023-02-15T11:35:56;14.97;;;11.53;;
5507;SDS011;2776;51.046;6.772;2023-02-15T11:38:28;18.87;;;12.10;;
5507;SDS011;2776;51.046;6.772;2023-02-15T11:40:59;17.17;;;11.17;;
5507;SDS011;2776;51.046;6.772;2023-02-15T11:43:31;14.70;;;10.90;;
5507;SDS011;2776;51.046;6.772;2023-02-15T11:46:03;16.03;;;10.53;;
5507;SDS011;2776;51.046;6.772;2023-02-15T11:48:31;13.47;;;10.60;;
5507;SDS011;2776;51.046;6.772;2023-02-15T11:50:58;14.93;;;11.30;;
5507;SDS011;2776;51.046;6.772;2023-02-15T11:53:26;15.30;;;10.17;;
5507;SDS011;2776;51.046;6.772;2023-02-15T11:55:57;12.87;;;10.07;;
5507;SDS011;2776;51.046;6.772;2023-02-15T11:58:28;17.00;;;11.20;;
5507;SDS011;2776;51.046;6.772;2023-02-15T12:01:00;15.37;;;10.80;;
5507;SDS011;2776;51.046;6.772;2023-02-15T12:03:39;15.97;;;11.63;;
5507;SDS011;2776;51.046;6.772;2023-02-15T12:06:13;14.60;;;11.13;;
5507;SDS011;2776;51.046;6.772;2023-02-15T12:08:47;17.10;;;11.30;;
5507;SDS011;2776;51.046;6.772;2023-02-15T12:11:19;14.57;;;10.87;;
5507;SDS011;2776;51.046;6.772;2023-02-15T12:13:55;15.80;;;10.60;;
5507;SDS011;2776;51.046;6.772;2023-02-15T12:16:23;15.27;;;11.00;;
5507;SDS011;2776;51.046;6.772;2023-02-15T12:18:51;16.50;;;11.30;;
5507;SDS011;2776;51.046;6.772;2023-02-15T12:21:27;15.60;;;11.10;;
5507;SDS011;2776;51.046;6.772;2023-02-15T12:23:56;15.87;;;11.63;;
5507;SDS011;2776;51.046;6.772;2023-02-15T12:26:27;14.07;;;11.00;;
5507;SDS011;2776;51.046;6.772;2023-02-15T12:28:57;13.13;;;10.27;;
5507;SDS011;2776;51.046;6.772;2023-02-15T12:31:27;16.37;;;10.90;;
5507;SDS011;2776;51.046;6.772;2023-02-15T12:34:02;15.87;;;10.73;;
5507;SDS011;2776;51.046;6.772;2023-02-15T12:36:40;15.27;;;10.53;;
5507;SDS011;2776;51.046;6.772;2023-02-15T12:39:18;14.07;;;10.87;;
5507;SDS011;2776;51.046;6.772;2023-02-15T12:42:00;14.37;;;11.00;;
5507;SDS011;2776;51.046;6.772;2023-02-15T12:44:30;14.13;;;10.67;;
5507;SDS011;2776;51.046;6.772;2023-02-15T12:46:58;12.73;;;10.50;;
5507;SDS011;2776;51.046;6.772;2023-02-15T12:49:28;16.10;;;10.63;;
5507;SDS011;2776;51.046;6.772;2023-02-15T12:51:56;17.00;;;10.63;;
5507;SDS011;2776;51.046;6.772;2023-02-15T12:59:57;14.43;;;11.03;;
5507;SDS011;2776;51.046;6.772;2023-02-15T13:02:27;14.43;;;10.37;;
5507;SDS011;2776;51.046;6.772;2023-02-15T13:05:05;16.80;;;10.90;;
5507;SDS011;2776;51.046;6.772;2023-02-15T13:07:44;14.33;;;10.83;;
5507;SDS011;2776;51.046;6.772;2023-02-15T13:10:18;13.83;;;10.57;;
5507;SDS011;2776;51.046;6.772;2023-02-15T13:12:50;13.13;;;10.33;;
5507;SDS011;2776;51.046;6.772;2023-02-15T13:15:30;13.67;;;10.03;;
5507;SDS011;2776;51.046;6.772;2023-02-15T13:18:00;13.47;;;10.07;;
5507;SDS011;2776;51.046;6.772;2023-02-15T13:20:30;16.33;;;10.40;;
5507;SDS011;2776;51.046;6.772;2023-02-15T13:23:01;14.97;;;11.47;;
5507;SDS011;2776;51.046;6.772;2023-02-15T13:25:34;13.37;;;10.23;;
5507;SDS011;2776;51.046;6.772;2023-02-15T13:28:10;12.63;;;10.00;;
5507;SDS011;2776;51.046;6.772;2023-02-15T13:30:42;13.73;;;9.93;;
5507;SDS011;2776;51.046;6.772;2023-02-15T13:33:12;12.20;;;9.93;;
5507;SDS011;2776;51.046;6.772;2023-02-15T13:35:47;13.13;;;10.57;;
5507;SDS011;2776;51.046;6.772;2023-02-15T13:38:23;14.53;;;10.70;;
5507;SDS011;2776;51.046;6.772;2023-02-15T13:41:09;15.20;;;10.77;;
5507;SDS011;2776;51.046;6.772;2023-02-15T13:43:42;12.07;;;9.73;;
5507;SDS011;2776;51.046;6.772;2023-02-15T13:46:19;17.60;;;10.40;;
5507;SDS011;2776;51.046;6.772;2023-02-15T13:48:55;16.17;;;10.47;;
5507;SDS011;2776;51.046;6.772;2023-02-15T13:51:34;13.43;;;10.57;;
5507;SDS011;2776;51.046;6.772;2023-02-15T13:54:17;12.37;;;9.13;;
5507;SDS011;2776;51.046;6.772;2023-02-15T13:56:58;14.30;;;10.13;;
5507;SDS011;2776;51.046;6.772;2023-02-15T13:59:46;13.27;;;10.07;;
5507;SDS011;2776;51.046;6.772;2023-02-15T14:02:35;15.37;;;10.10;;
5507;SDS011;2776;51.046;6.772;2023-02-15T14:05:18;12.87;;;10.07;;
5507;SDS011;2776;51.046;6.772;2023-02-15T14:07:58;14.00;;;10.67;;
5507;SDS011;2776;51.046;6.772;2023-02-15T14:10:35;14.63;;;10.80;;
5507;SDS011;2776;51.046;6.772;2023-02-15T14:13:19;13.73;;;9.77;;
5507;SDS011;2776;51.046;6.772;2023-02-15T14:16:08;13.30;;;10.17;;
5507;SDS011;2776;51.046;6.772;2023-02-15T14:18:41;12.70;;;10.07;;
5507;SDS011;2776;51.046;6.772;2023-02-15T14:21:13;12.47;;;9.90;;
5507;SDS011;2776;51.046;6.772;2023-02-15T14:23:51;12.80;;;10.60;;
5507;SDS011;2776;51.046;6.772;2023-02-15T14:26:28;14.37;;;10.70;;
5507;SDS011;2776;51.046;6.772;2023-02-15T14:29:07;12.77;;;10.00;;
5507;SDS011;2776;51.046;6.772;2023-02-15T14:31:43;13.23;;;9.73;;
5507;SDS011;2776;51.046;6.772;2023-02-15T14:34:16;11.73;;;9.53;;
5507;SDS011;2776;51.046;6.772;2023-02-15T14:36:47;15.00;;;10.60;;
5507;SDS011;2776;51.046;6.772;2023-02-15T14:39:18;14.53;;;11.13;;
5507;SDS011;2776;51.046;6.772;2023-02-15T14:42:09;14.43;;;10.07;;
5507;SDS011;2776;51.046;6.772;2023-02-15T14:44:42;12.90;;;9.87;;
5507;SDS011;2776;51.046;6.772;2023-02-15T14:47:14;11.83;;;10.03;;
5507;SDS011;2776;51.046;6.772;2023-02-15T14:49:48;12.77;;;9.87;;
5507;SDS011;2776;51.046;6.772;2023-02-15T14:52:14;13.37;;;9.80;;
5507;SDS011;2776;51.046;6.772;2023-02-15T14:54:58;15.27;;;10.90;;
5507;SDS011;2776;51.046;6.772;2023-02-15T14:57:26;14.03;;;10.90;;
5507;SDS011;2776;51.046;6.772;2023-02-15T15:00:00;12.87;;;10.90;;
5507;SDS011;2776;51.046;6.772;2023-02-15T15:02:46;20.20;;;10.63;;
5507;SDS011;2776;51.046;6.772;2023-02-15T15:05:17;15.17;;;10.83;;
5507;SDS011;2776;51.046;6.772;2023-02-15T15:07:46;15.63;;;10.60;;
5507;SDS011;2776;51.046;6.772;2023-02-15T15:10:36;13.60;;;10.07;;
5507;SDS011;2776;51.046;6.772;2023-02-15T15:19:07;14.33;;;10.97;;
5507;SDS011;2776;51.046;6.772;2023-02-15T15:21:52;15.07;;;11.27;;
5507;SDS011;2776;51.046;6.772;2023-02-15T15:36:39;14.20;;;11.30;;
5507;SDS011;2776;51.046;6.772;2023-02-15T15:42:36;17.33;;;10.83;;
5507;SDS011;2776;51.046;6.772;2023-02-15T15:45:29;14.87;;;11.47;;
5507;SDS011;2776;51.046;6.772;2023-02-15T15:48:19;15.67;;;11.33;;